Latest Weather Observations for Keith West

IDS60801

Issued at 4:11 pm CDT Saturday 10 December 2022 (issued every 10 minutes, with the page automatically refreshed every 10 minutes)

About weather observations | Map of weather stations | Latest weather observations for SA | Other Formats
Station Details ID: 025557 Name: MUNKORA Lat: -36.11 Lon: 140.33 Height: 27.0 m
Data from the previous 72 hours. | See also: Recent months at Keith West
Date/Time
CDT
Temp
°C
App
Temp
°C
Dew
Point
°C
Rel
Hum
%
Delta-T
°C
Wind Press
QNH
hPa
Press
MSL
hPa
Rain since
9am
mm
Dir  Spd
km/h
Gust
km/h
Spd
kts
Gust
kts
10/04:00pm 29.9 26.5 7.8 25 12.1 N 15 26 8 14 1007.8 1007.7 0.0
10/03:30pm 30.2 27.1 7.4 24 12.4 NNE 13 24 7 13 1008.3 1008.2 0.0
10/03:00pm 31.1 26.8 6.9 22 13.1 NNE 19 26 10 14 1008.7 1008.6 0.0
10/02:30pm 30.8 27.7 7.3 23 12.8 NE 13 20 7 11 1008.9 1008.8 0.0
10/02:00pm 29.9 26.1 5.9 22 12.7 NE 15 28 8 15 1009.5 1009.4 0.0
10/01:30pm 29.7 25.6 6.4 23 12.4 N 17 24 9 13 1010.1 1010.0 0.0
10/01:00pm 27.8 23.9 5.4 24 11.6 NNE 15 30 8 16 1010.9 1010.8 0.0
10/12:30pm 27.1 22.5 5.4 25 11.2 NNE 19 28 10 15 1011.2 1011.1 0.0
10/12:00pm 27.3 23.1 5.6 25 11.2 NE 17 24 9 13 1011.2 1011.1 0.0
10/11:30am 27.0 22.7 5.3 25 11.2 NE 17 30 9 16 1011.5 1011.4 0.0
10/11:00am 26.0 21.3 5.0 26 10.7 NNE 19 28 10 15 1011.9 1011.8 0.0
10/10:30am 24.6 20.3 5.4 29 9.7 NE 17 28 9 15 1012.6 1012.5 0.0
10/10:00am 23.6 18.9 6.0 32 9.0 NNE 20 35 11 19 1012.9 1012.8 0.0
10/09:30am 22.4 17.6 5.4 33 8.5 NE 20 28 11 15 1013.5 1013.4 0.0
10/09:00am 20.8 16.4 6.4 39 7.3 NE 19 24 10 13 1014.0 1013.9 0.0
10/08:30am 18.8 14.7 6.3 44 6.2 ENE 17 24 9 13 1014.2 1014.1 0.0
10/08:00am 16.6 12.1 5.9 49 5.2 NE 19 26 10 14 1014.3 1014.2 0.0
10/07:30am 15.1 10.3 5.6 53 4.5 NE 20 28 11 15 1014.0 1013.9 0.0
10/07:00am 14.0 9.4 5.4 56 4.0 NE 19 28 10 15 1014.1 1014.0 0.0
10/06:30am 12.9 8.1 4.8 58 3.7 NE 19 30 10 16 1013.7 1013.6 0.0
10/06:00am 12.2 7.2 4.7 60 3.4 ENE 20 26 11 14 1013.6 1013.5 0.0
10/05:30am 12.1 8.0 4.6 60 3.4 NE 15 22 8 12 1013.6 1013.5 0.0
10/05:00am 12.4 8.0 4.9 60 3.4 NE 17 24 9 13 1013.3 1013.2 0.0
10/04:30am 12.0 8.4 5.0 62 3.2 ENE 13 19 7 10 1013.0 1012.9 0.0
10/04:00am 12.1 8.1 5.0 62 3.3 ENE 15 24 8 13 1012.9 1012.8 0.0
10/03:30am 12.3 8.3 4.8 60 3.4 ENE 15 19 8 10 1013.2 1013.1 0.0
10/03:00am 11.8 8.0 4.1 59 3.5 ENE 13 19 7 10 1013.2 1013.1 0.0
10/02:30am 12.1 8.9 3.3 55 3.9 ENE 9 13 5 7 1013.1 1013.0 0.0
10/02:00am 12.8 8.9 3.5 53 4.2 ENE 13 17 7 9 1013.3 1013.2 0.0
10/01:30am 12.6 9.0 3.0 52 4.2 NE 11 13 6 7 1013.5 1013.4 0.0
10/01:00am 11.9 8.7 3.2 55 3.8 ENE 9 13 5 7 1013.7 1013.6 0.0
10/12:30am 12.2 8.9 2.6 52 4.2 NE 9 9 5 5 1014.0 1013.9 0.0
10/12:00am 12.7 9.5 2.8 51 4.4 NE 9 13 5 7 1014.2 1014.1 0.0
 
Date/Time
CDT
Temp
°C
App
Temp
°C
Dew
Point
°C
Rel
Hum
%
Delta-T
°C
Wind Press
QNH
hPa
Press
MSL
hPa
Rain since
9am
mm
Dir  Spd
km/h
Gust
km/h
Spd
kts
Gust
kts
09/11:30pm 12.8 9.6 3.2 52 4.3 ENE 9 13 5 7 1014.4 1014.3 0.0
09/11:00pm 13.1 9.2 3.5 52 4.3 E 13 15 7 8 1014.2 1014.1 0.0
09/10:30pm 12.4 8.9 3.6 55 3.9 E 11 13 6 7 1014.5 1014.4 0.0
09/10:00pm 13.1 9.5 3.2 51 4.4 E 11 11 6 6 1014.7 1014.6 0.0
09/09:30pm 13.7 10.6 3.5 50 4.6 E 9 11 5 6 1014.6 1014.5 0.0
09/09:00pm 14.6 11.5 3.4 47 5.1 E 9 9 5 5 1014.4 1014.3 0.0
09/08:30pm 16.3 13.4 2.7 40 6.2 E 7 9 4 5 1014.3 1014.2 0.0
09/08:00pm 18.9 15.6 2.7 34 7.5 E 9 11 5 6 1014.3 1014.2 0.0
09/07:30pm 21.1 17.4 2.4 29 8.7 E 11 15 6 8 1014.0 1013.9 0.0
09/07:00pm 22.3 18.9 1.9 26 9.5 ENE 9 13 5 7 1013.9 1013.8 0.0
09/06:30pm 23.0 20.0 1.9 25 9.9 E 7 13 4 7 1013.8 1013.7 0.0
09/06:00pm 23.6 20.0 3.0 26 9.9 ESE 11 17 6 9 1013.8 1013.7 0.0
09/05:30pm 23.5 20.1 1.8 24 10.2 ENE 9 17 5 9 1013.9 1013.8 0.0
09/05:00pm 23.7 20.8 2.5 25 10.1 ESE 7 15 4 8 1013.8 1013.7 0.0
09/04:30pm 23.2 20.3 1.5 24 10.1 S 6 13 3 7 1014.4 1014.3 0.0
09/04:00pm 22.8 19.8 1.8 25 9.8 ESE 7 13 4 7 1015.2 1015.1 0.0
09/03:30pm 22.6 19.7 1.6 25 9.8 SE 6 13 3 7 1015.4 1015.3 0.0
09/03:00pm 22.1 19.1 1.7 26 9.5 SE 7 13 4 7 1015.6 1015.5 0.0
09/02:30pm 21.8 18.9 1.5 26 9.4 ENE 6 11 3 6 1015.8 1015.7 0.0
09/02:00pm 20.9 18.0 1.7 28 8.8 ESE 6 17 3 9 1016.2 1016.1 0.0
09/01:30pm 21.0 16.9 2.3 29 8.7 ESE 13 19 7 10 1016.5 1016.4 0.0
09/01:00pm 20.2 16.5 2.5 31 8.2 ESE 11 19 6 10 1017.0 1016.9 0.0
09/12:30pm 19.4 15.4 2.7 33 7.7 ESE 13 22 7 12 1017.6 1017.5 0.0
09/12:00pm 18.9 15.6 2.7 34 7.5 NE 9 19 5 10 1017.8 1017.7 0.0
09/11:30am 18.0 14.9 3.5 38 6.8 NE 9 17 5 9 1018.1 1018.0 0.0
09/11:00am 16.3 12.0 3.4 42 5.9 ENE 15 24 8 13 1018.2 1018.1 0.0
09/10:30am 15.7 11.1 3.8 45 5.5 ENE 17 26 9 14 1018.2 1018.1 0.0
09/10:00am 15.1 10.0 3.0 44 5.5 ENE 19 26 10 14 1018.6 1018.5 0.0
09/09:30am 15.7 12.4 6.2 53 4.6 ENE 13 20 7 11 1019.0 1018.9 0.0
09/09:00am 13.0 8.6 4.9 58 3.7 E 17 24 9 13 1019.4 1019.3 0.0
09/08:30am 13.1 8.4 5.3 59 3.6 E 19 24 10 13 1019.1 1019.0 0.0
09/08:00am 10.7 6.5 5.5 70 2.4 E 17 22 9 12 1019.3 1019.2 0.0
09/07:30am 9.8 7.8 6.3 79 1.6 ESE 6 11 3 6 1019.7 1019.6 0.0
09/07:00am 7.3 5.2 5.6 89 0.8 ESE 6 6 3 3 1019.0 1018.9 0.0
09/06:30am 6.4 4.5 4.9 90 0.7 ESE 4 6 2 3 1018.7 1018.6 0.0
09/06:00am 5.5 3.5 4.5 93 0.4 ESE 4 6 2 3 1018.2 1018.1 0.0
09/05:30am 5.0 2.9 3.7 91 0.5 ESE 4 6 2 3 1017.9 1017.8 0.0
09/05:00am 4.8 2.6 3.5 91 0.5 SE 4 6 2 3 1017.2 1017.1 0.0
09/04:30am 4.5 1.7 3.2 91 0.5 SE 7 7 4 4 1016.9 1016.8 0.0
09/04:00am 4.4 1.2 3.1 91 0.5 ESE 9 9 5 5 1016.8 1016.7 0.0
09/03:30am 4.4 1.6 2.9 90 0.6 SE 7 9 4 5 1016.9 1016.8 0.0
09/03:00am 4.4 1.6 2.9 90 0.6 SE 7 9 4 5 1017.2 1017.1 0.0
09/02:30am 4.5 1.6 2.8 89 0.7 SE 7 7 4 4 1017.5 1017.4 0.0
09/02:00am 4.7 2.1 3.0 89 0.7 SE 6 7 3 4 1017.8 1017.7 0.0
09/01:30am 5.2 2.4 3.2 87 0.8 SSE 7 9 4 5 1018.1 1018.0 0.0
09/01:00am 6.0 3.3 3.7 85 1.0 SSE 7 11 4 6 1018.4 1018.3 0.0
09/12:30am 6.4 4.2 3.4 81 1.3 S 4 7 2 4 1018.9 1018.8 0.0
09/12:00am 6.7 4.0 3.5 80 1.3 S 7 9 4 5 1019.0 1018.9 0.0
 
Date/Time
CDT
Temp
°C
App
Temp
°C
Dew
Point
°C
Rel
Hum
%
Delta-T
°C
Wind Press
QNH
hPa
Press
MSL
hPa
Rain since
9am
mm
Dir  Spd
km/h
Gust
km/h
Spd
kts
Gust
kts
08/11:30pm 7.3 4.2 3.7 78 1.5 S 9 11 5 6 1019.2 1019.1 0.0
08/11:00pm 8.0 5.0 4.0 76 1.7 S 9 11 5 6 1019.1 1019.0 0.0
08/10:30pm 8.4 5.0 4.0 74 1.9 SSW 11 11 6 6 1018.9 1018.8 0.0
08/10:00pm 9.1 6.1 4.1 71 2.2 SSW 9 9 5 5 1018.6 1018.5 0.0
08/09:30pm 10.1 7.5 4.0 66 2.7 S 7 9 4 5 1018.1 1018.0 0.0
08/09:00pm 11.3 8.8 4.5 63 3.1 S 7 11 4 6 1017.8 1017.7 0.0
08/08:30pm 13.1 9.0 4.5 56 3.9 SSE 15 20 8 11 1017.3 1017.2 0.0
08/08:00pm 14.5 9.9 3.9 49 4.9 S 17 28 9 15 1017.5 1017.4 0.0
08/07:30pm 15.8 11.2 3.6 44 5.6 S 17 28 9 15 1017.1 1017.0 0.0
08/07:00pm 16.8 11.8 3.5 41 6.1 S 19 26 10 14 1016.8 1016.7 0.0
08/06:30pm 16.3 11.7 3.7 43 5.8 S 17 26 9 14 1016.5 1016.4 0.0
08/06:00pm 18.0 12.5 3.9 39 6.6 SSW 22 33 12 18 1016.3 1016.2 0.0
08/05:30pm 17.6 12.0 3.5 39 6.5 S 22 39 12 21 1016.7 1016.6 0.0
08/05:00pm 18.6 12.3 4.0 38 6.9 SW 26 33 14 18 1017.1 1017.0 0.0
08/04:30pm 18.1 12.7 4.3 40 6.5 SW 22 33 12 18 1016.9 1016.8 0.0
08/04:00pm 19.3 14.2 3.9 36 7.3 SW 20 33 11 18 1016.8 1016.7 0.0
08/03:30pm 20.2 14.6 3.4 33 7.9 SW 22 37 12 20 1016.6 1016.5 0.0
08/03:00pm 19.1 14.0 3.3 35 7.4 SW 19 30 10 16 1017.1 1017.0 0.0
08/02:30pm 18.3 13.7 3.8 38 6.8 SSW 17 26 9 14 1017.1 1017.0 0.0
08/02:00pm 18.0 13.0 4.6 41 6.4 SSW 20 32 11 17 1017.5 1017.4 0.0
08/01:30pm 18.0 12.9 4.2 40 6.5 S 20 30 11 16 1017.7 1017.6 0.0
08/01:00pm 19.0 14.8 5.8 42 6.5 SW 17 30 9 16 1017.9 1017.8 0.0
08/12:30pm 17.8 13.0 4.4 41 6.3 SSW 19 26 10 14 1018.2 1018.1 0.0
08/12:00pm 16.5 11.4 3.9 43 5.8 S 20 33 11 18 1018.3 1018.2 0.0
08/11:30am 17.7 12.8 3.9 40 6.5 S 19 32 10 17 1018.4 1018.3 0.0
08/11:00am 15.3 10.2 4.1 47 5.2 S 20 30 11 16 1018.5 1018.4 0.0
08/10:30am 16.1 10.7 4.5 46 5.4 S 22 33 12 18 1018.5 1018.4 0.0
08/10:00am 15.8 10.4 4.5 47 5.3 SSW 22 37 12 20 1018.6 1018.5 0.0
08/09:30am 16.0 10.4 5.3 49 5.1 SSW 24 33 13 18 1018.6 1018.5 0.0
08/09:00am 14.2 9.2 4.8 53 4.4 SSW 20 33 11 18 1018.5 1018.4 0.0
08/08:30am 13.9 9.7 5.5 57 3.9 SSW 17 24 9 13 1018.3 1018.2 0.0
08/08:00am 12.9 10.4 6.7 66 3.0 SW 9 15 5 8 1018.1 1018.0 0.0
08/07:30am 9.9 8.4 6.6 80 1.5 SW 4 6 2 3 1017.8 1017.7 0.0
08/07:00am 7.0 5.5 6.6 97 0.2 NW 4 4 2 2 1017.4 1017.3 0.0
08/06:30am 4.4 2.3 3.8 96 0.2 NW 4 6 2 3 1017.0 1016.9 0.0
08/06:00am 2.8 0.0 1.9 94 0.4 NW 6 6 3 3 1016.8 1016.7 0.0
08/05:30am 2.7 0.3 2.0 95 0.3 NW 4 4 2 2 1016.4 1016.3 0.0
08/05:00am 2.2 -0.7 1.5 95 0.3 NNW 6 6 3 3 1016.1 1016.0 0.0
08/04:30am 1.7 -1.5 0.7 93 0.4 NNW 7 7 4 4 1016.0 1015.9 0.0
08/04:00am 2.2 0.0 1.2 93 0.4 WNW 2 4 1 2 1015.7 1015.6 0.0
08/03:30am 2.5 0.4 1.5 93 0.4 WNW 2 4 1 2 1015.7 1015.6 0.0
08/03:00am 3.3 0.7 1.0 85 0.9 W 4 4 2 2 1015.7 1015.6 0.0
08/02:30am 5.0 2.4 3.0 87 0.8 SSW 6 7 3 4 1015.7 1015.6 0.0
08/02:00am 5.2 2.4 3.1 86 0.9 SW 7 9 4 5 1015.9 1015.8 0.0
08/01:30am 4.2 1.3 1.7 84 1.0 WSW 6 7 3 4 1016.2 1016.1 0.0
08/01:00am 5.4 2.7 3.6 88 0.8 SW 7 9 4 5 1016.2 1016.1 0.0
08/12:30am 3.7 0.7 2.2 90 0.6 WNW 7 9 4 5 1016.4 1016.3 0.0
08/12:00am 4.8 2.0 2.0 82 1.1 WSW 6 6 3 3 1016.2 1016.1 0.0
 
Date/Time
CDT
Temp
°C
App
Temp
°C
Dew
Point
°C
Rel
Hum
%
Delta-T
°C
Wind Press
QNH
hPa
Press
MSL
hPa
Rain since
9am
mm
Dir  Spd
km/h
Gust
km/h
Spd
kts
Gust
kts
07/11:30pm 7.5 4.8 3.9 78 1.5 SW 7 11 4 6 1016.3 1016.2 0.0
07/11:00pm 7.6 5.1 3.5 75 1.7 SW 6 7 3 4 1016.1 1016.0 0.0
07/10:30pm 9.0 5.9 3.8 70 2.3 SSW 9 13 5 7 1016.1 1016.0 0.0
07/10:00pm 10.0 6.6 4.2 67 2.6 SSW 11 17 6 9 1015.8 1015.7 0.0
07/09:30pm 11.0 6.0 3.8 61 3.2 SSW 19 26 10 14 1015.3 1015.2 0.0
07/09:00pm 11.1 6.6 2.4 55 3.7 SW 15 20 8 11 1014.7 1014.6 0.0
07/08:30pm 12.1 6.6 2.0 50 4.3 SSW 20 30 11 16 1014.2 1014.1 0.0
07/08:00pm 13.1 7.3 2.4 48 4.7 SSW 22 33 12 18 1013.7 1013.6 0.0
07/07:30pm 14.3 6.9 1.6 42 5.5 SW 30 46 16 25 1013.1 1013.0 0.0
07/07:00pm 15.3 8.3 4.1 47 5.2 SW 30 44 16 24 1012.4 1012.3 0.0
07/06:45pm 15.4 8.4 5.9 53 4.6 SW 32 54 17 29 1012.0 1011.9 0.0
07/06:30pm 16.1 9.0 6.5 53 4.7 SW 33 48 18 26 1011.9 1011.8 0.0
07/06:04pm 16.4 10.6 8.1 58 4.2 SW 28 48 15 26 1011.3 1011.2 0.0
07/06:00pm 16.0 10.3 8.5 61 3.8 SSW 28 41 15 22 1011.3 1011.2 0.0
07/05:30pm 16.9 9.8 8.1 56 4.5 SW 35 54 19 29 1010.9 1010.8 0.0
07/05:00pm 17.0 10.8 10.1 64 3.6 SW 33 52 18 28 1010.7 1010.6 0.0
07/04:56pm 16.3 10.1 9.3 63 3.6 SW 32 52 17 28 1010.7 1010.6 0.0
07/04:30pm 18.0 12.6 10.9 63 3.8 WSW 30 39 16 21 1010.4 1010.3 0.0

Other formats

Comma delimited format used in spreadsheet applications
http://www.bom.gov.au/fwo/IDS60801/IDS60801.95815.axf

JavaScript Object Notation format (JSON) in row-major order
http://www.bom.gov.au/fwo/IDS60801/IDS60801.95815.json

Data quality

Most of these data are generated automatically and are frequently updated. Quality checks on data are not normally performed. It is possible for incorrect values to appear. Refer to information at About Latest Weather Observations and please check the disclaimer before using these data.